createdAt,value
2023-03-27T00:03:31.853Z,29.17
2023-03-27T00:07:32.056Z,29.21
2023-03-27T00:11:31.688Z,29.17
2023-03-27T00:15:31.678Z,29.21
2023-03-27T00:19:32.068Z,29.19
2023-03-27T00:23:32.072Z,29.19
2023-03-27T00:27:31.571Z,29.19
2023-03-27T00:31:31.619Z,29.18
2023-03-27T00:35:31.600Z,29.22
2023-03-27T00:39:31.461Z,29.15
2023-03-27T00:43:31.581Z,29.18
2023-03-27T00:47:31.621Z,29.19
2023-03-27T00:51:31.332Z,29.13
2023-03-27T00:55:31.577Z,29.17
2023-03-27T00:59:31.674Z,29.16
2023-03-27T01:03:31.692Z,29.13
2023-03-27T01:07:31.314Z,29.15
2023-03-27T01:11:31.573Z,29.13
2023-03-27T01:15:31.563Z,29.16
2023-03-27T01:19:31.573Z,29.13
2023-03-27T01:23:58.561Z,29.16
2023-03-27T01:27:32.469Z,29.15
2023-03-27T01:31:31.612Z,29.15
2023-03-27T01:35:31.626Z,29.17
2023-03-27T01:39:31.350Z,29.18
2023-03-27T01:43:31.608Z,29.13
2023-03-27T01:47:31.342Z,29.12
2023-03-27T01:51:31.583Z,29.12
2023-03-27T01:55:31.623Z,29.11
2023-03-27T01:59:31.594Z,29.14
2023-03-27T02:03:31.475Z,29.07
2023-03-27T02:07:31.581Z,29.15
2023-03-27T02:11:31.578Z,29.16
2023-03-27T02:15:32.117Z,29.09
2023-03-27T02:19:32.099Z,29.09
2023-03-27T02:23:31.679Z,29.10
2023-03-27T02:27:32.098Z,29.08
2023-03-27T02:31:34.398Z,29.08
2023-03-27T02:35:32.122Z,29.10
2023-03-27T02:39:31.692Z,29.05
2023-03-27T02:43:31.636Z,29.10
2023-03-27T02:47:32.191Z,29.11
2023-03-27T02:51:31.614Z,29.07
2023-03-27T02:55:31.619Z,29.04
2023-03-27T02:59:31.519Z,29.06
2023-03-27T03:03:31.521Z,29.02
2023-03-27T03:07:31.707Z,29.00
2023-03-27T03:11:31.387Z,29.01
2023-03-27T03:15:31.627Z,29.10
2023-03-27T03:19:31.348Z,29.02
2023-03-27T03:23:31.633Z,29.02
2023-03-27T03:27:31.643Z,28.99
2023-03-27T03:31:31.290Z,29.03
2023-03-27T03:35:31.691Z,28.97
2023-03-27T03:39:31.175Z,28.96
2023-03-27T03:43:31.141Z,28.95
2023-03-27T03:47:31.152Z,28.96
2023-03-27T03:51:31.028Z,29.01
2023-03-27T03:55:31.173Z,29.00
2023-03-27T03:59:30.944Z,28.96
2023-03-27T04:03:31.023Z,28.92
2023-03-27T04:07:31.126Z,28.93
2023-03-27T04:11:30.846Z,28.92
2023-03-27T04:15:31.149Z,28.92
2023-03-27T04:19:30.746Z,28.92
2023-03-27T04:23:31.176Z,28.86
2023-03-27T04:27:31.166Z,28.84
2023-03-27T04:31:30.882Z,28.87
2023-03-27T04:35:30.894Z,28.79
2023-03-27T04:39:30.871Z,29.28
2023-03-27T04:43:31.144Z,29.24
2023-03-27T04:47:31.333Z,30.30
2023-03-27T04:51:31.178Z,29.77
2023-03-27T04:55:31.046Z,29.72
2023-03-27T04:59:31.160Z,29.72
2023-03-27T05:03:31.146Z,29.64
2023-03-27T05:07:31.132Z,29.56
2023-03-27T05:11:31.201Z,29.50
2023-03-27T05:15:31.653Z,29.46
2023-03-27T05:19:31.258Z,29.41
2023-03-27T05:23:31.644Z,29.34
2023-03-27T05:27:31.658Z,29.33
2023-03-27T05:31:31.398Z,29.32
2023-03-27T05:35:31.752Z,29.30
2023-03-27T05:39:31.681Z,29.28
2023-03-27T05:43:31.673Z,30.44
2023-03-27T05:47:31.699Z,33.60
2023-03-27T05:51:31.637Z,33.21
2023-03-27T05:55:32.156Z,33.95
2023-03-27T05:59:32.159Z,34.51
2023-03-27T06:03:32.313Z,34.56
2023-03-27T06:07:32.091Z,35.83
2023-03-27T06:11:32.289Z,35.96
2023-03-27T06:15:32.315Z,35.28
2023-03-27T06:19:32.712Z,36.27
2023-03-27T06:23:32.726Z,36.78
2023-03-27T06:27:32.498Z,37.37
2023-03-27T06:31:33.237Z,37.56
2023-03-27T06:35:33.198Z,37.48
2023-03-27T06:39:32.645Z,37.96
2023-03-27T06:43:32.697Z,38.31
2023-03-27T06:47:36.382Z,37.64
2023-03-27T06:51:33.890Z,33.23
2023-03-27T06:55:32.689Z,31.31
2023-03-27T06:59:32.711Z,33.22
2023-03-27T07:03:32.718Z,33.78
2023-03-27T07:07:32.511Z,34.17
2023-03-27T07:11:32.694Z,34.32
2023-03-27T07:15:32.687Z,34.88
2023-03-27T07:19:33.210Z,34.61
2023-03-27T07:23:33.344Z,35.43
2023-03-27T07:27:33.302Z,35.77
2023-03-27T07:31:51.560Z,35.80
2023-03-27T07:35:34.775Z,35.77
2023-03-27T07:39:33.685Z,35.76
2023-03-27T07:43:33.713Z,34.15
2023-03-27T07:47:33.445Z,33.29
2023-03-27T07:51:33.771Z,34.46
2023-03-27T07:55:33.710Z,34.60
2023-03-27T07:59:33.724Z,34.97
2023-03-27T08:03:33.947Z,35.11
2023-03-27T08:07:33.932Z,35.61
2023-03-27T08:11:34.291Z,35.93
2023-03-27T08:15:33.979Z,36.30
2023-03-27T08:19:33.989Z,36.49
2023-03-27T08:23:34.089Z,36.75
2023-03-27T08:27:34.213Z,37.29
2023-03-27T08:31:34.381Z,37.64
2023-03-27T08:35:34.615Z,37.98
2023-03-27T08:39:34.783Z,38.24
2023-03-27T08:43:34.891Z,37.96
2023-03-27T08:47:35.043Z,31.19
2023-03-27T08:51:35.104Z,35.25
2023-03-27T08:55:35.109Z,35.25
2023-03-27T08:59:35.353Z,30.62
2023-03-27T09:03:35.507Z,31.83
2023-03-27T09:07:35.501Z,32.28
2023-03-27T09:11:35.589Z,33.02
2023-03-27T09:15:35.813Z,32.86
2023-03-27T09:19:35.892Z,33.23
2023-03-27T09:23:36.032Z,33.43
2023-03-27T09:27:36.156Z,33.54
2023-03-27T09:31:36.373Z,33.73
2023-03-27T09:35:36.360Z,33.71
2023-03-27T09:39:36.410Z,34.08
2023-03-27T09:43:36.488Z,34.17
2023-03-27T09:47:36.610Z,28.72
2023-03-27T09:51:36.611Z,30.81
2023-03-27T09:55:36.793Z,30.84
2023-03-27T09:59:36.874Z,30.33
2023-03-27T10:03:37.149Z,29.71
2023-03-27T10:07:37.255Z,29.56
2023-03-27T10:11:37.245Z,29.28
2023-03-27T10:15:37.051Z,29.15
2023-03-27T10:19:37.289Z,28.99
2023-03-27T10:23:37.910Z,28.65
2023-03-27T10:27:37.768Z,28.38
2023-03-27T10:31:38.008Z,28.09
2023-03-27T10:35:37.670Z,27.80
2023-03-27T10:39:37.784Z,27.82
2023-03-27T10:43:38.251Z,27.63
2023-03-27T10:47:38.286Z,28.11
2023-03-27T10:51:46.021Z,28.65
2023-03-27T10:55:38.988Z,28.80
2023-03-27T10:59:41.843Z,29.53
2023-03-27T11:03:38.389Z,29.78
2023-03-27T11:07:38.292Z,30.34
2023-03-27T11:11:37.887Z,30.18
2023-03-27T11:15:38.292Z,30.46
2023-03-27T11:19:38.296Z,30.49
2023-03-27T11:23:37.781Z,30.52
2023-03-27T11:27:37.814Z,30.64
2023-03-27T11:31:37.734Z,31.05
2023-03-27T11:35:38.318Z,29.67
2023-03-27T11:39:38.279Z,30.02
2023-03-27T11:43:38.305Z,30.17
2023-03-27T11:47:38.038Z,30.47
2023-03-27T11:51:38.063Z,30.15
2023-03-27T11:55:38.321Z,29.98
2023-03-27T11:59:38.290Z,29.92
2023-03-27T12:03:38.189Z,29.85
2023-03-27T12:07:40.568Z,29.91
2023-03-27T12:11:39.294Z,29.80
2023-03-27T12:15:38.313Z,29.72
2023-03-27T12:19:39.211Z,29.71
2023-03-27T12:23:38.426Z,29.73
2023-03-27T12:27:38.554Z,29.62
2023-03-27T12:31:38.885Z,29.76
2023-03-27T12:35:39.320Z,29.76
2023-03-27T12:39:39.727Z,29.76
2023-03-27T12:43:39.064Z,29.49
2023-03-27T12:47:39.168Z,29.46
2023-03-27T12:51:39.208Z,29.57
2023-03-27T12:55:39.326Z,29.52
2023-03-27T12:59:39.372Z,29.29
2023-03-27T13:03:46.910Z,29.39
2023-03-27T13:07:39.486Z,29.36
2023-03-27T13:11:39.856Z,29.34
2023-03-27T13:15:39.421Z,29.45
2023-03-27T13:19:39.854Z,29.35
2023-03-27T13:23:39.309Z,29.30
2023-03-27T13:27:39.369Z,29.28
2023-03-27T13:31:39.397Z,29.25
2023-03-27T13:35:39.199Z,29.19
2023-03-27T13:39:39.359Z,29.03
2023-03-27T13:43:39.127Z,29.33
2023-03-27T13:47:39.858Z,29.23
2023-03-27T13:51:39.388Z,28.93
2023-03-27T13:55:39.294Z,28.89
2023-03-27T13:59:39.378Z,29.04
2023-03-27T14:03:39.441Z,29.08
2023-03-27T14:07:39.852Z,28.90
2023-03-27T14:11:39.561Z,28.69
2023-03-27T14:15:39.926Z,28.68
2023-03-27T14:19:39.720Z,28.71
2023-03-27T14:23:39.852Z,28.65
2023-03-27T14:27:40.352Z,28.43
2023-03-27T14:31:40.401Z,28.63
2023-03-27T14:35:40.084Z,28.66
2023-03-27T14:39:40.088Z,28.46
2023-03-27T14:43:40.392Z,28.58
2023-03-27T14:47:40.256Z,28.59
2023-03-27T14:51:40.366Z,28.49
2023-03-27T14:55:40.379Z,28.27
2023-03-27T14:59:40.421Z,28.39
2023-03-27T15:03:40.882Z,28.42
2023-03-27T15:07:40.886Z,28.42
2023-03-27T15:11:40.575Z,28.34
2023-03-27T15:15:40.946Z,28.21
2023-03-27T15:19:40.650Z,28.18
2023-03-27T15:23:40.866Z,28.31
2023-03-27T15:27:40.914Z,28.24
2023-03-27T15:31:40.901Z,28.28
2023-03-27T15:35:40.845Z,28.19
2023-03-27T15:39:40.908Z,28.02
2023-03-27T15:43:42.388Z,28.11
2023-03-27T15:47:41.491Z,28.17
2023-03-27T15:51:40.982Z,28.01
2023-03-27T15:55:41.069Z,27.98
2023-03-27T15:59:52.047Z,28.02
2023-03-27T16:03:42.189Z,27.91
2023-03-27T16:07:41.405Z,27.91
2023-03-27T16:11:41.227Z,27.94
2023-03-27T16:15:41.250Z,28.04
2023-03-27T16:19:41.302Z,28.10
2023-03-27T16:23:41.416Z,28.08
2023-03-27T16:27:41.618Z,27.99
2023-03-27T16:31:41.459Z,27.99
2023-03-27T16:35:41.455Z,27.98
2023-03-27T16:39:41.911Z,27.74
2023-03-27T16:43:41.510Z,27.72
2023-03-27T16:47:42.015Z,27.83
2023-03-27T16:51:41.638Z,27.74
2023-03-27T16:55:41.717Z,27.88
2023-03-27T16:59:41.913Z,27.74
2023-03-27T17:03:41.921Z,27.70
2023-03-27T17:07:42.417Z,27.66
2023-03-27T17:11:42.016Z,27.64
2023-03-27T17:15:42.398Z,27.70
2023-03-27T17:19:42.392Z,27.60
2023-03-27T17:23:42.425Z,27.52
2023-03-27T17:27:42.431Z,27.68
2023-03-27T17:31:42.530Z,27.48
2023-03-27T17:35:42.999Z,27.57
2023-03-27T17:39:42.918Z,27.57
2023-03-27T17:43:42.960Z,27.55
2023-03-27T17:47:42.991Z,27.40
2023-03-27T17:51:42.743Z,27.36
2023-03-27T17:55:42.930Z,27.23
2023-03-27T17:59:42.935Z,27.34
2023-03-27T18:03:42.911Z,27.39
2023-03-27T18:07:42.945Z,27.47
2023-03-27T18:11:42.884Z,27.37
2023-03-27T18:15:43.506Z,27.24
2023-03-27T18:19:43.446Z,27.22
2023-03-27T18:23:46.389Z,27.13
2023-03-27T18:27:43.937Z,27.02
2023-03-27T18:31:42.980Z,27.04
2023-03-27T18:35:42.971Z,27.10
2023-03-27T18:39:42.872Z,27.07
2023-03-27T18:43:42.981Z,27.08
2023-03-27T18:47:42.795Z,27.00
2023-03-27T18:51:42.945Z,27.15
2023-03-27T18:55:42.986Z,27.00
2023-03-27T18:59:42.978Z,26.90
2023-03-27T19:03:42.951Z,27.04
2023-03-27T19:07:44.322Z,26.73
2023-03-27T19:11:42.959Z,26.83
2023-03-27T19:15:42.954Z,26.83
2023-03-27T19:19:43.893Z,26.82
2023-03-27T19:23:42.470Z,26.82
2023-03-27T19:27:42.457Z,26.84
2023-03-27T19:31:42.476Z,26.80
2023-03-27T19:35:42.482Z,26.77
2023-03-27T19:39:42.465Z,26.80
2023-03-27T19:43:42.466Z,26.68
2023-03-27T19:47:42.326Z,26.61
2023-03-27T19:51:42.509Z,26.62
2023-03-27T19:55:42.483Z,26.60
2023-03-27T19:59:42.468Z,26.57
2023-03-27T20:03:42.249Z,26.59
2023-03-27T20:07:42.099Z,26.49
2023-03-27T20:11:42.473Z,26.51
2023-03-27T20:15:42.017Z,26.59
2023-03-27T20:19:41.990Z,26.41
2023-03-27T20:23:41.995Z,26.44
2023-03-27T20:27:41.998Z,26.44
2023-03-27T20:31:42.040Z,26.28
2023-03-27T20:35:41.830Z,26.46
2023-03-27T20:39:42.008Z,26.37
2023-03-27T20:43:41.734Z,26.21
2023-03-27T20:47:42.043Z,26.03
2023-03-27T20:51:42.003Z,26.30
2023-03-27T20:55:53.132Z,26.17
2023-03-27T20:59:42.650Z,26.21
2023-03-27T21:03:41.763Z,26.36
2023-03-27T21:07:42.016Z,26.23
2023-03-27T21:11:42.057Z,26.13
2023-03-27T21:15:42.006Z,26.18
2023-03-27T21:19:41.909Z,26.19
2023-03-27T21:23:42.547Z,26.16
2023-03-27T21:27:41.992Z,26.21
2023-03-27T21:31:42.194Z,26.25
2023-03-27T21:35:42.504Z,26.22
2023-03-27T21:39:42.079Z,26.23
2023-03-27T21:43:42.531Z,26.19
2023-03-27T21:47:47.647Z,26.09
2023-03-27T21:51:43.522Z,26.26
2023-03-27T21:55:42.580Z,26.22
2023-03-27T21:59:42.350Z,26.30
2023-03-27T22:03:42.366Z,26.20
2023-03-27T22:07:42.506Z,26.09
2023-03-27T22:11:42.569Z,26.07
2023-03-27T22:15:42.547Z,26.05
2023-03-27T22:19:42.473Z,26.05
2023-03-27T22:23:42.594Z,26.00
2023-03-27T22:27:42.535Z,25.94
2023-03-27T22:31:43.707Z,25.97
2023-03-27T22:35:43.068Z,26.04
2023-03-27T22:39:42.649Z,26.03
2023-03-27T22:43:43.033Z,25.85
2023-03-27T22:47:43.071Z,25.87
2023-03-27T22:51:43.037Z,25.80
2023-03-27T22:55:42.926Z,25.84
2023-03-27T22:59:43.023Z,25.79
2023-03-27T23:03:43.175Z,25.80
2023-03-27T23:07:43.540Z,25.79
2023-03-27T23:11:43.559Z,25.69
2023-03-27T23:15:43.221Z,25.85
2023-03-27T23:19:43.543Z,25.60
2023-03-27T23:23:43.266Z,25.60
2023-03-27T23:27:43.563Z,25.75
2023-03-27T23:31:43.598Z,25.61
2023-03-27T23:35:43.440Z,25.68
2023-03-27T23:39:43.536Z,25.64
2023-03-27T23:43:43.536Z,25.71
2023-03-27T23:47:44.083Z,25.74
2023-03-27T23:51:43.635Z,25.63
2023-03-27T23:55:44.052Z,25.71
2023-03-27T23:59:43.756Z,25.61
